Jessieville, AR

6:50 AM CDT on September 30, 2014 (GMT -0500)
RAWS JESSIEVILLE AR US | Change Station
CLOSE
Current Station
Personal Weather Station
Location: Jessieville, AR
Elevation: 674 ft
Nearby Weather Stations

Elev 674 ft 34.69 °N, 93.22 °W | Updated 48 minutes ago

Clear
Clear
53 °F
Feels Like 53 °F
N
0
Wind Variable Wind from North
Gusts 0.0 mph

Today
High -- | Low -- °F
--% Chance of Precip.
Yesterday
High -- | Low -- °F
Precip. -- in
7:06 AM 6:57 PM
Waxing Crescent, 36% visible
Pressure 29.95 in
Visibility 9.0 miles
Clouds Clear
Dew Point 53 °F
Humidity 100%
Rainfall 0.00 in
Snow Depth Not available.
UV 0 out of 12
Pollen 8.50 out of 12
Air Quality Not available.
Flu Activity Not available.
METAR KHOT 301053Z AUTO 00000KT 9SM CLR 15/13 A2996 RMK AO2 SLP140 T01500133

More Conditions Fewer Conditions

Pressure 29.95 in
Visibility 9.0 miles
Clouds Clear
Dew Point 53 °F
Humidity 100%
Rainfall 0.00 in
Snow Depth Not available.
UV 0 out of 12
Pollen 8.50 out of 12
Air Quality Not available.
Flu Activity Not available.
METAR KHOT 301053Z AUTO 00000KT 9SM CLR 15/13 A2996 RMK AO2 SLP140 T01500133

More Conditions Fewer Conditions

10-Day Weather Forecast

Almanac

Astronomy

Sep. 30, 2014 Rise Set
Actual Time 7:06 AM CDT 6:57 PM CDT
Civil Twilight 6:41 AM CDT 7:22 PM CDT
Nautical Twilight 6:11 AM CDT 7:51 PM CDT
Astronomical Twilight 5:42 AM CDT 8:21 PM CDT
Moon 1:03 PM CDT 11:39 PM CDT
Length of Visible Light 12h 41m
Length of Day
11h 51m
Tomorrow will be 2m 8s shorter.
Waxing Crescent, 36% of the Moon is Illuminated
Today
Waxing Crescent
Oct 1
First Quarter
Oct 8
Full
Oct 15
Last Quarter
Oct 23
New

Today's Extremes

State Highs State Lows

Community

WunderPhotos

Upload Photos

1,757,618 photos uploaded!

Nearby

Snow Depth

Station Depth Elevation
No new snow has been reported.

Earthquake Activity

City Distance Mag. Time & Date
No recent earthquake activity has been reported nearby.
Minimum magnitude displayed is 2.5.

Coastal Water Temperatures

Place Temperature
No Stations Reporting

Nearby Weather Stations